sensor_id;sensor_type;location;lat;lon;timestamp;pressure;altitude;pressure_sealevel;temperature;humidity
49515;BME280;35415;47.870;16.058;2023-04-02T00:45:59;96427.00;;;8.85;75.63
49515;BME280;35415;47.870;16.058;2023-04-02T00:48:39;96353.25;;;8.43;75.77
49515;BME280;35415;47.870;16.058;2023-04-02T00:51:21;96432.56;;;8.98;75.17
49515;BME280;35415;47.870;16.058;2023-04-02T00:57:12;96383.63;;;8.72;75.26
49515;BME280;35415;47.870;16.058;2023-04-02T01:06:07;96323.50;;;8.39;74.48
49515;BME280;35415;47.870;16.058;2023-04-02T01:08:53;96430.13;;;9.02;74.30
49515;BME280;35415;47.870;16.058;2023-04-02T01:42:06;96399.69;;;8.78;74.86
49515;BME280;35415;47.870;16.058;2023-04-02T01:44:41;96332.09;;;8.41;74.81
49515;BME280;35415;47.870;16.058;2023-04-02T01:47:14;96375.94;;;8.61;75.13
49515;BME280;35415;47.870;16.058;2023-04-02T01:49:43;96413.31;;;8.91;75.43
49515;BME280;35415;47.870;16.058;2023-04-02T01:52:14;96371.94;;;8.58;75.03
49515;BME280;35415;47.870;16.058;2023-04-02T01:54:43;96385.34;;;8.58;75.70
49515;BME280;35415;47.870;16.058;2023-04-02T01:57:14;96389.03;;;8.67;75.55
49515;BME280;35415;47.870;16.058;2023-04-02T01:59:43;96397.03;;;8.72;75.72
49515;BME280;35415;47.870;16.058;2023-04-02T02:02:13;96420.28;;;8.87;76.56
49515;BME280;35415;47.870;16.058;2023-04-02T02:04:43;96411.22;;;8.78;76.10
49515;BME280;35415;47.870;16.058;2023-04-02T02:07:17;96367.38;;;8.54;76.51
49515;BME280;35415;47.870;16.058;2023-04-02T02:09:47;96347.09;;;8.32;76.68
49515;BME280;35415;47.870;16.058;2023-04-02T02:12:17;96393.63;;;8.62;76.68
49515;BME280;35415;47.870;16.058;2023-04-02T02:14:51;96390.72;;;8.48;77.63
49515;BME280;35415;47.870;16.058;2023-04-02T02:17:22;96374.16;;;8.41;77.90
49515;BME280;35415;47.870;16.058;2023-04-02T02:19:52;96377.09;;;8.39;78.07
49515;BME280;35415;47.870;16.058;2023-04-02T02:22:27;96361.31;;;8.28;78.79
49515;BME280;35415;47.870;16.058;2023-04-02T02:25:01;96421.16;;;8.72;79.58
49515;BME280;35415;47.870;16.058;2023-04-02T02:28:05;96357.84;;;8.27;79.04
49515;BME280;35415;47.870;16.058;2023-04-02T02:30:40;96381.72;;;8.24;79.77
49515;BME280;35415;47.870;16.058;2023-04-02T02:33:15;96430.06;;;8.63;79.86
49515;BME280;35415;47.870;16.058;2023-04-02T02:35:49;96394.25;;;8.38;79.96
49515;BME280;35415;47.870;16.058;2023-04-02T02:38:39;96360.78;;;8.21;79.38
49515;BME280;35415;47.870;16.058;2023-04-02T02:41:15;96387.59;;;8.26;79.59
49515;BME280;35415;47.870;16.058;2023-04-02T02:43:52;96401.47;;;8.43;79.77
49515;BME280;35415;47.870;16.058;2023-04-02T02:46:24;96386.47;;;8.32;79.82
49515;BME280;35415;47.870;16.058;2023-04-02T02:48:54;96393.22;;;8.24;80.18
49515;BME280;35415;47.870;16.058;2023-04-02T02:51:27;96350.69;;;8.07;79.61
49515;BME280;35415;47.870;16.058;2023-04-02T02:54:00;96415.44;;;8.40;79.77
49515;BME280;35415;47.870;16.058;2023-04-02T02:56:30;96431.75;;;8.38;79.94
49515;BME280;35415;47.870;16.058;2023-04-02T02:59:04;96396.41;;;8.31;79.61
49515;BME280;35415;47.870;16.058;2023-04-02T03:01:32;96384.38;;;8.19;79.52
49515;BME280;35415;47.870;16.058;2023-04-02T03:04:03;96362.19;;;8.03;79.69
49515;BME280;35415;47.870;16.058;2023-04-02T03:06:41;96444.03;;;8.55;79.82
49515;BME280;35415;47.870;16.058;2023-04-02T03:09:16;96423.97;;;8.47;79.26
49515;BME280;35415;47.870;16.058;2023-04-02T03:11:49;96389.75;;;8.24;79.35
49515;BME280;35415;47.870;16.058;2023-04-02T03:14:23;96403.91;;;8.29;79.67
49515;BME280;35415;47.870;16.058;2023-04-02T03:16:58;96382.50;;;8.19;80.06
49515;BME280;35415;47.870;16.058;2023-04-02T03:19:32;96423.47;;;8.40;80.09
49515;BME280;35415;47.870;16.058;2023-04-02T03:22:05;96406.34;;;8.26;80.37
49515;BME280;35415;47.870;16.058;2023-04-02T03:24:44;96381.94;;;8.22;79.94
49515;BME280;35415;47.870;16.058;2023-04-02T03:27:17;96394.81;;;8.25;80.13
49515;BME280;35415;47.870;16.058;2023-04-02T03:29:55;96365.97;;;8.07;80.06
49515;BME280;35415;47.870;16.058;2023-04-02T03:32:29;96422.09;;;8.48;80.18
49515;BME280;35415;47.870;16.058;2023-04-02T03:35:01;96371.56;;;8.10;80.52
49515;BME280;35415;47.870;16.058;2023-04-02T03:37:37;96425.31;;;8.44;80.95
49515;BME280;35415;47.870;16.058;2023-04-02T03:40:20;96413.56;;;8.40;80.91
49515;BME280;35415;47.870;16.058;2023-04-02T03:42:52;96420.00;;;8.34;81.06
49515;BME280;35415;47.870;16.058;2023-04-02T03:45:26;96351.50;;;8.03;81.38
49515;BME280;35415;47.870;16.058;2023-04-02T03:47:57;96446.47;;;8.51;81.11
49515;BME280;35415;47.870;16.058;2023-04-02T03:50:32;96406.88;;;8.28;80.82
49515;BME280;35415;47.870;16.058;2023-04-02T03:53:03;96415.97;;;8.37;80.75
49515;BME280;35415;47.870;16.058;2023-04-02T03:55:36;96383.59;;;8.18;80.29
49515;BME280;35415;47.870;16.058;2023-04-02T03:58:14;96462.47;;;8.66;80.54
49515;BME280;35415;47.870;16.058;2023-04-02T04:00:48;96388.41;;;8.16;80.17
49515;BME280;35415;47.870;16.058;2023-04-02T04:03:21;96459.00;;;8.66;80.44
49515;BME280;35415;47.870;16.058;2023-04-02T04:05:53;96398.31;;;8.26;80.01
49515;BME280;35415;47.870;16.058;2023-04-02T04:08:24;96395.91;;;8.24;80.32
49515;BME280;35415;47.870;16.058;2023-04-02T04:10:56;96438.41;;;8.51;80.40
49515;BME280;35415;47.870;16.058;2023-04-02T04:13:30;96428.28;;;8.43;79.92
49515;BME280;35415;47.870;16.058;2023-04-02T04:16:05;96429.06;;;8.38;79.90
49515;BME280;35415;47.870;16.058;2023-04-02T04:18:40;96436.84;;;8.45;80.06
49515;BME280;35415;47.870;16.058;2023-04-02T04:21:14;96422.41;;;8.26;80.40
49515;BME280;35415;47.870;16.058;2023-04-02T04:24:04;96408.75;;;8.22;80.05
49515;BME280;35415;47.870;16.058;2023-04-02T04:26:38;96444.88;;;8.45;79.99
49515;BME280;35415;47.870;16.058;2023-04-02T04:29:17;96451.31;;;8.44;80.08
49515;BME280;35415;47.870;16.058;2023-04-02T04:31:53;96420.00;;;8.24;80.13
49515;BME280;35415;47.870;16.058;2023-04-02T04:34:27;96466.03;;;8.52;80.20
49515;BME280;35415;47.870;16.058;2023-04-02T04:37:01;96446.50;;;8.41;79.99
49515;BME280;35415;47.870;16.058;2023-04-02T04:39:40;96422.94;;;8.23;79.86
49515;BME280;35415;47.870;16.058;2023-04-02T04:42:14;96430.16;;;8.22;79.47
49515;BME280;35415;47.870;16.058;2023-04-02T04:44:51;96461.25;;;8.43;79.54
49515;BME280;35415;47.870;16.058;2023-04-02T04:47:28;96469.78;;;8.51;79.54
49515;BME280;35415;47.870;16.058;2023-04-02T04:50:03;96497.88;;;8.63;79.30
49515;BME280;35415;47.870;16.058;2023-04-02T04:52:36;96483.19;;;8.51;79.49
49515;BME280;35415;47.870;16.058;2023-04-02T04:55:20;96541.47;;;8.89;79.73
49515;BME280;35415;47.870;16.058;2023-04-02T04:57:50;96483.47;;;8.49;79.08
49515;BME280;35415;47.870;16.058;2023-04-02T05:00:24;96518.75;;;8.77;79.48
49515;BME280;35415;47.870;16.058;2023-04-02T05:02:59;96505.66;;;8.65;79.53
49515;BME280;35415;47.870;16.058;2023-04-02T05:05:37;96443.03;;;8.30;79.70
49515;BME280;35415;47.870;16.058;2023-04-02T05:08:11;96489.88;;;8.58;78.84
49515;BME280;35415;47.870;16.058;2023-04-02T05:10:42;96530.03;;;8.73;78.71
49515;BME280;35415;47.870;16.058;2023-04-02T05:13:15;96480.22;;;8.52;78.80
49515;BME280;35415;47.870;16.058;2023-04-02T05:16:02;96507.50;;;8.74;78.53
49515;BME280;35415;47.870;16.058;2023-04-02T05:18:36;96464.41;;;8.51;78.10
49515;BME280;35415;47.870;16.058;2023-04-02T05:21:14;96526.75;;;8.92;78.24
49515;BME280;35415;47.870;16.058;2023-04-02T05:23:45;96509.59;;;8.83;78.26
49515;BME280;35415;47.870;16.058;2023-04-02T05:26:17;96468.16;;;8.55;78.10
49515;BME280;35415;47.870;16.058;2023-04-02T05:28:53;96508.56;;;8.79;77.83
49515;BME280;35415;47.870;16.058;2023-04-02T05:31:29;96481.78;;;8.68;77.51
49515;BME280;35415;47.870;16.058;2023-04-02T05:34:04;96513.91;;;8.84;77.17
49515;BME280;35415;47.870;16.058;2023-04-02T05:36:31;96531.03;;;8.93;77.71
49515;BME280;35415;47.870;16.058;2023-04-02T05:39:01;96507.19;;;8.86;77.73
49515;BME280;35415;47.870;16.058;2023-04-02T05:41:32;96497.03;;;8.78;78.33
49515;BME280;35415;47.870;16.058;2023-04-02T05:44:06;96492.19;;;8.80;78.44
49515;BME280;35415;47.870;16.058;2023-04-02T05:46:42;96486.84;;;8.70;79.06
49515;BME280;35415;47.870;16.058;2023-04-02T05:49:18;96560.66;;;9.22;79.11
49515;BME280;35415;47.870;16.058;2023-04-02T05:51:50;96491.41;;;8.80;78.43
49515;BME280;35415;47.870;16.058;2023-04-02T05:54:21;96565.44;;;9.35;77.79
49515;BME280;35415;47.870;16.058;2023-04-02T05:56:54;96566.75;;;9.38;77.57
49515;BME280;35415;47.870;16.058;2023-04-02T05:59:25;96525.31;;;9.10;77.86
49515;BME280;35415;47.870;16.058;2023-04-02T06:01:57;96565.44;;;9.35;77.90
49515;BME280;35415;47.870;16.058;2023-04-02T06:04:34;96511.72;;;8.96;77.90
49515;BME280;35415;47.870;16.058;2023-04-02T06:07:07;96482.50;;;8.84;77.27
49515;BME280;35415;47.870;16.058;2023-04-02T06:09:40;96498.81;;;8.98;77.33
49515;BME280;35415;47.870;16.058;2023-04-02T06:12:16;96524.47;;;9.19;76.99
49515;BME280;35415;47.870;16.058;2023-04-02T06:14:46;96501.75;;;9.01;77.39
49515;BME280;35415;47.870;16.058;2023-04-02T06:17:15;96530.34;;;9.26;77.09
49515;BME280;35415;47.870;16.058;2023-04-02T06:19:48;96476.53;;;9.02;76.97
49515;BME280;35415;47.870;16.058;2023-04-02T06:22:21;96531.34;;;9.35;76.57
49515;BME280;35415;47.870;16.058;2023-04-02T06:27:49;96549.44;;;9.64;74.42
49515;BME280;35415;47.870;16.058;2023-04-02T06:30:22;96541.34;;;9.69;74.14
49515;BME280;35415;47.870;16.058;2023-04-02T06:32:51;96534.41;;;9.63;74.17
49515;BME280;35415;47.870;16.058;2023-04-02T06:35:20;96566.44;;;9.88;73.39
49515;BME280;35415;47.870;16.058;2023-04-02T06:37:50;96521.22;;;9.67;72.86
49515;BME280;35415;47.870;16.058;2023-04-02T06:40:30;96543.91;;;9.84;72.97
49515;BME280;35415;47.870;16.058;2023-04-02T06:43:06;96509.97;;;9.64;72.12
49515;BME280;35415;47.870;16.058;2023-04-02T06:45:40;96517.91;;;9.80;72.56
49515;BME280;35415;47.870;16.058;2023-04-02T06:48:14;96539.00;;;9.97;70.25
49515;BME280;35415;47.870;16.058;2023-04-02T06:50:47;96481.69;;;9.72;70.66
49515;BME280;35415;47.870;16.058;2023-04-02T06:53:21;96555.59;;;10.04;70.44
49515;BME280;35415;47.870;16.058;2023-04-02T06:55:53;96490.84;;;9.71;70.01
49515;BME280;35415;47.870;16.058;2023-04-02T06:58:22;96555.50;;;10.14;69.75
49515;BME280;35415;47.870;16.058;2023-04-02T07:00:49;96557.63;;;10.17;70.38
49515;BME280;35415;47.870;16.058;2023-04-02T07:03:22;96546.88;;;10.17;70.44
49515;BME280;35415;47.870;16.058;2023-04-02T07:05:51;96591.25;;;10.48;70.19
49515;BME280;35415;47.870;16.058;2023-04-02T07:08:19;96589.38;;;10.49;70.00
49515;BME280;35415;47.870;16.058;2023-04-02T07:10:47;96538.31;;;10.15;68.89
49515;BME280;35415;47.870;16.058;2023-04-02T07:13:19;96577.16;;;10.33;69.01
49515;BME280;35415;47.870;16.058;2023-04-02T07:15:49;96547.38;;;10.24;68.94
49515;BME280;35415;47.870;16.058;2023-04-02T07:18:23;96524.94;;;10.05;68.89
49515;BME280;35415;47.870;16.058;2023-04-02T07:20:55;96533.44;;;10.17;68.16
49515;BME280;35415;47.870;16.058;2023-04-02T07:23:24;96594.47;;;10.50;68.56
49515;BME280;35415;47.870;16.058;2023-04-02T07:25:52;96547.38;;;10.24;68.21
49515;BME280;35415;47.870;16.058;2023-04-02T07:28:20;96542.59;;;10.16;68.32
49515;BME280;35415;47.870;16.058;2023-04-02T07:30:48;96532.72;;;10.06;68.43
49515;BME280;35415;47.870;16.058;2023-04-02T07:33:18;96605.69;;;10.58;68.38
49515;BME280;35415;47.870;16.058;2023-04-02T07:35:47;96595.31;;;10.46;69.18
49515;BME280;35415;47.870;16.058;2023-04-02T07:38:19;96611.13;;;10.52;69.31
49515;BME280;35415;47.870;16.058;2023-04-02T07:40:47;96579.28;;;10.36;68.92
49515;BME280;35415;47.870;16.058;2023-04-02T07:43:14;96564.28;;;10.30;68.41
49515;BME280;35415;47.870;16.058;2023-04-02T07:48:38;96615.13;;;10.55;69.13
49515;BME280;35415;47.870;16.058;2023-04-02T07:51:13;96607.41;;;10.48;69.19
49515;BME280;35415;47.870;16.058;2023-04-02T07:53:43;96608.66;;;10.56;69.95
49515;BME280;35415;47.870;16.058;2023-04-02T07:56:18;96614.09;;;10.51;67.83
49515;BME280;35415;47.870;16.058;2023-04-02T07:58:46;96618.91;;;10.54;68.52
49515;BME280;35415;47.870;16.058;2023-04-02T08:01:16;96585.72;;;10.35;68.51
49515;BME280;35415;47.870;16.058;2023-04-02T08:03:44;96577.44;;;10.31;68.69
49515;BME280;35415;47.870;16.058;2023-04-02T08:06:12;96590.25;;;10.39;67.95
49515;BME280;35415;47.870;16.058;2023-04-02T08:08:42;96602.88;;;10.44;67.61
49515;BME280;35415;47.870;16.058;2023-04-02T08:11:12;96610.31;;;10.52;67.67
49515;BME280;35415;47.870;16.058;2023-04-02T08:13:42;96608.72;;;10.51;67.38
49515;BME280;35415;47.870;16.058;2023-04-02T08:16:17;96632.53;;;10.63;67.51
49515;BME280;35415;47.870;16.058;2023-04-02T08:18:47;96583.00;;;10.40;67.51
49515;BME280;35415;47.870;16.058;2023-04-02T08:21:17;96633.56;;;10.67;67.34
49515;BME280;35415;47.870;16.058;2023-04-02T08:23:49;96646.38;;;10.80;66.10
49515;BME280;35415;47.870;16.058;2023-04-02T08:26:32;96673.94;;;10.96;66.05
49515;BME280;35415;47.870;16.058;2023-04-02T08:29:04;96607.97;;;10.45;65.61
49515;BME280;35415;47.870;16.058;2023-04-02T08:31:31;96683.38;;;10.93;65.94
49515;BME280;35415;47.870;16.058;2023-04-02T08:34:01;96621.31;;;10.55;66.01
49515;BME280;35415;47.870;16.058;2023-04-02T08:36:33;96611.69;;;10.49;66.51
49515;BME280;35415;47.870;16.058;2023-04-02T08:39:03;96632.03;;;10.61;65.93
49515;BME280;35415;47.870;16.058;2023-04-02T08:41:36;96593.22;;;10.38;66.42
49515;BME280;35415;47.870;16.058;2023-04-02T08:44:28;96678.31;;;10.87;66.41
49515;BME280;35415;47.870;16.058;2023-04-02T08:47:03;96638.22;;;10.61;66.36
49515;BME280;35415;47.870;16.058;2023-04-02T08:49:36;96646.50;;;10.65;67.05
49515;BME280;35415;47.870;16.058;2023-04-02T08:52:04;96647.88;;;10.62;67.40
49515;BME280;35415;47.870;16.058;2023-04-02T08:54:34;96694.38;;;10.97;67.13
49515;BME280;35415;47.870;16.058;2023-04-02T08:57:05;96650.50;;;10.67;67.36
49515;BME280;35415;47.870;16.058;2023-04-02T08:59:34;96670.28;;;10.81;68.23
49515;BME280;35415;47.870;16.058;2023-04-02T09:02:24;96707.19;;;11.05;67.82
49515;BME280;35415;47.870;16.058;2023-04-02T09:04:56;96673.03;;;10.76;68.43
49515;BME280;35415;47.870;16.058;2023-04-02T09:07:25;96683.97;;;10.85;68.36
49515;BME280;35415;47.870;16.058;2023-04-02T09:09:56;96670.09;;;10.73;68.58
49515;BME280;35415;47.870;16.058;2023-04-02T09:12:26;96643.44;;;10.47;69.58
49515;BME280;35415;47.870;16.058;2023-04-02T09:15:10;96697.94;;;10.87;69.05
49515;BME280;35415;47.870;16.058;2023-04-02T09:17:43;96645.91;;;10.39;69.53
49515;BME280;35415;47.870;16.058;2023-04-02T09:20:14;96733.41;;;10.94;70.45
49515;BME280;35415;47.870;16.058;2023-04-02T09:22:44;96731.56;;;10.90;71.40
49515;BME280;35415;47.870;16.058;2023-04-02T09:25:19;96690.13;;;10.62;70.98
49515;BME280;35415;47.870;16.058;2023-04-02T09:27:49;96660.13;;;10.44;70.58
49515;BME280;35415;47.870;16.058;2023-04-02T09:30:26;96692.53;;;10.58;69.78
49515;BME280;35415;47.870;16.058;2023-04-02T09:32:58;96711.34;;;10.58;69.73
49515;BME280;35415;47.870;16.058;2023-04-02T09:35:32;96714.84;;;10.64;70.05
49515;BME280;35415;47.870;16.058;2023-04-02T09:38:18;96721.81;;;10.65;70.87
49515;BME280;35415;47.870;16.058;2023-04-02T09:40:50;96723.94;;;10.68;71.42
49515;BME280;35415;47.870;16.058;2023-04-02T09:43:27;96722.13;;;10.58;71.55
49515;BME280;35415;47.870;16.058;2023-04-02T09:45:58;96763.59;;;10.86;73.03
49515;BME280;35415;47.870;16.058;2023-04-02T09:48:28;96692.97;;;10.36;74.24
49515;BME280;35415;47.870;16.058;2023-04-02T09:51:24;96732.34;;;10.61;74.07
49515;BME280;35415;47.870;16.058;2023-04-02T09:54:10;96744.41;;;10.64;74.77
49515;BME280;35415;47.870;16.058;2023-04-02T11:49:37;96776.59;;;10.79;75.53
49515;BME280;35415;47.870;16.058;2023-04-02T11:52:23;96778.66;;;10.87;74.38
49515;BME280;35415;47.870;16.058;2023-04-02T11:54:59;96782.66;;;10.95;74.77
49515;BME280;35415;47.870;16.058;2023-04-02T11:57:44;96750.28;;;10.71;73.60
49515;BME280;35415;47.870;16.058;2023-04-02T12:00:25;96805.69;;;11.06;73.29
49515;BME280;35415;47.870;16.058;2023-04-02T12:03:17;96793.13;;;10.96;73.18
49515;BME280;35415;47.870;16.058;2023-04-02T14:20:39;97025.25;;;8.73;81.55
49515;BME280;35415;47.870;16.058;2023-04-02T14:23:38;97006.13;;;8.49;83.08
49515;BME280;35415;47.870;16.058;2023-04-02T14:26:15;97055.78;;;8.62;84.13
49515;BME280;35415;47.870;16.058;2023-04-02T14:28:52;97062.13;;;8.51;84.66
49515;BME280;35415;47.870;16.058;2023-04-02T14:31:31;97029.06;;;8.35;86.86
49515;BME280;35415;47.870;16.058;2023-04-02T14:34:13;97030.59;;;8.26;88.17
49515;BME280;35415;47.870;16.058;2023-04-02T14:37:18;96980.78;;;7.88;89.42
49515;BME280;35415;47.870;16.058;2023-04-02T14:40:06;97060.66;;;8.33;92.67
49515;BME280;35415;47.870;16.058;2023-04-02T14:42:52;97046.16;;;8.29;93.97
49515;BME280;35415;47.870;16.058;2023-04-02T15:49:49;97069.06;;;8.09;95.52
49515;BME280;35415;47.870;16.058;2023-04-02T15:52:37;97069.88;;;8.10;95.42
49515;BME280;35415;47.870;16.058;2023-04-02T15:55:39;97113.72;;;8.31;96.45
49515;BME280;35415;47.870;16.058;2023-04-02T15:59:06;97076.56;;;8.07;96.06
49515;BME280;35415;47.870;16.058;2023-04-02T16:11:14;97067.16;;;7.73;96.99
49515;BME280;35415;47.870;16.058;2023-04-02T16:13:42;97133.75;;;8.23;94.91
49515;BME280;35415;47.870;16.058;2023-04-02T16:16:13;97108.31;;;7.94;93.78
49515;BME280;35415;47.870;16.058;2023-04-02T16:18:48;97151.34;;;8.14;94.76
49515;BME280;35415;47.870;16.058;2023-04-02T16:21:21;97126.84;;;8.00;93.01
49515;BME280;35415;47.870;16.058;2023-04-02T16:23:49;97172.56;;;8.21;93.10
49515;BME280;35415;47.870;16.058;2023-04-02T16:26:34;97143.13;;;7.94;94.55
49515;BME280;35415;47.870;16.058;2023-04-02T16:29:19;97178.97;;;8.20;96.16
49515;BME280;35415;47.870;16.058;2023-04-02T16:31:56;97143.88;;;7.89;96.87
49515;BME280;35415;47.870;16.058;2023-04-02T16:34:34;97144.94;;;7.88;98.56
49515;BME280;35415;47.870;16.058;2023-04-02T16:37:10;97177.22;;;8.03;98.88
49515;BME280;35415;47.870;16.058;2023-04-02T16:39:50;97173.47;;;8.04;97.09
49515;BME280;35415;47.870;16.058;2023-04-02T16:42:39;97138.41;;;7.79;98.48
49515;BME280;35415;47.870;16.058;2023-04-02T16:45:23;97203.28;;;8.08;97.88
49515;BME280;35415;47.870;16.058;2023-04-02T16:48:07;97194.09;;;8.04;98.37
49515;BME280;35415;47.870;16.058;2023-04-02T16:50:46;97214.25;;;8.06;96.43
49515;BME280;35415;47.870;16.058;2023-04-02T16:53:30;97223.88;;;8.07;96.36
49515;BME280;35415;47.870;16.058;2023-04-02T16:56:20;97183.91;;;7.74;96.26
49515;BME280;35415;47.870;16.058;2023-04-02T16:59:02;97194.94;;;7.82;95.38
49515;BME280;35415;47.870;16.058;2023-04-02T17:01:46;97182.97;;;7.63;96.39
49515;BME280;35415;47.870;16.058;2023-04-02T17:04:33;97192.56;;;7.59;96.54
49515;BME280;35415;47.870;16.058;2023-04-02T17:07:21;97244.22;;;7.81;94.77
49515;BME280;35415;47.870;16.058;2023-04-02T17:09:57;97254.72;;;7.88;92.49
49515;BME280;35415;47.870;16.058;2023-04-02T17:12:34;97277.91;;;7.99;92.37
49515;BME280;35415;47.870;16.058;2023-04-02T17:15:13;97236.25;;;7.65;92.16
49515;BME280;35415;47.870;16.058;2023-04-02T17:17:46;97243.41;;;7.59;91.71
49515;BME280;35415;47.870;16.058;2023-04-02T17:20:16;97267.97;;;7.73;93.17
49515;BME280;35415;47.870;16.058;2023-04-02T17:22:48;97248.44;;;7.55;90.94
49515;BME280;35415;47.870;16.058;2023-04-02T17:25:20;97258.66;;;7.59;90.43
49515;BME280;35415;47.870;16.058;2023-04-02T17:27:53;97233.00;;;7.41;91.29
49515;BME280;35415;47.870;16.058;2023-04-02T17:30:34;97241.28;;;7.39;92.61
49515;BME280;35415;47.870;16.058;2023-04-02T17:33:09;97260.94;;;7.50;93.31
49515;BME280;35415;47.870;16.058;2023-04-02T17:35:47;97257.41;;;7.44;93.25
49515;BME280;35415;47.870;16.058;2023-04-02T17:38:25;97256.75;;;7.37;94.39
49515;BME280;35415;47.870;16.058;2023-04-02T17:41:01;97293.88;;;7.50;94.01
49515;BME280;35415;47.870;16.058;2023-04-02T17:43:38;97232.34;;;7.12;94.13
49515;BME280;35415;47.870;16.058;2023-04-02T17:46:20;97311.00;;;7.49;93.95
49515;BME280;35415;47.870;16.058;2023-04-02T17:48:56;97293.09;;;7.33;92.04
49515;BME280;35415;47.870;16.058;2023-04-02T17:51:33;97304.91;;;7.37;89.72
49515;BME280;35415;47.870;16.058;2023-04-02T17:54:16;97303.50;;;7.30;90.17
49515;BME280;35415;47.870;16.058;2023-04-02T17:56:58;97338.50;;;7.45;87.55
49515;BME280;35415;47.870;16.058;2023-04-02T17:59:53;97364.53;;;7.49;87.65
49515;BME280;35415;47.870;16.058;2023-04-02T18:02:35;97291.00;;;6.85;86.89
49515;BME280;35415;47.870;16.058;2023-04-02T18:05:20;97361.84;;;7.33;87.29
49515;BME280;35415;47.870;16.058;2023-04-02T18:08:06;97331.13;;;7.02;86.59
49515;BME280;35415;47.870;16.058;2023-04-02T18:10:46;97301.94;;;6.67;87.52
49515;BME280;35415;47.870;16.058;2023-04-02T18:13:27;97362.28;;;7.08;87.38
49515;BME280;35415;47.870;16.058;2023-04-02T18:16:17;97378.56;;;7.06;87.84
49515;BME280;35415;47.870;16.058;2023-04-02T18:19:00;97411.94;;;7.20;88.21
49515;BME280;35415;47.870;16.058;2023-04-02T18:21:41;97337.50;;;6.67;88.40
49515;BME280;35415;47.870;16.058;2023-04-02T18:24:32;97326.41;;;6.58;86.96
49515;BME280;35415;47.870;16.058;2023-04-02T18:27:07;97437.19;;;7.24;87.59
49515;BME280;35415;47.870;16.058;2023-04-02T18:29:56;97386.75;;;6.71;86.63
49515;BME280;35415;47.870;16.058;2023-04-02T18:32:41;97454.03;;;7.08;87.00
49515;BME280;35415;47.870;16.058;2023-04-02T18:35:19;97383.38;;;6.47;85.91
49515;BME280;35415;47.870;16.058;2023-04-02T18:38:12;97477.09;;;6.98;85.97
49515;BME280;35415;47.870;16.058;2023-04-02T18:40:59;97401.59;;;6.50;86.45
49515;BME280;35415;47.870;16.058;2023-04-02T18:43:45;97385.41;;;6.28;85.49
49515;BME280;35415;47.870;16.058;2023-04-02T18:46:23;97474.38;;;6.69;85.35
49515;BME280;35415;47.870;16.058;2023-04-02T18:48:56;97408.41;;;6.29;83.64
49515;BME280;35415;47.870;16.058;2023-04-02T18:51:33;97383.75;;;5.99;83.48
49515;BME280;35415;47.870;16.058;2023-04-02T18:54:13;97397.78;;;6.06;83.53
49515;BME280;35415;47.870;16.058;2023-04-02T18:56:44;97440.47;;;6.18;82.82
49515;BME280;35415;47.870;16.058;2023-04-02T18:59:29;97487.50;;;6.42;81.48
49515;BME280;35415;47.870;16.058;2023-04-02T19:02:15;97479.00;;;6.33;82.55
49515;BME280;35415;47.870;16.058;2023-04-02T19:04:55;97440.28;;;5.96;81.63
49515;BME280;35415;47.870;16.058;2023-04-02T19:07:27;97496.91;;;6.33;84.44
49515;BME280;35415;47.870;16.058;2023-04-02T19:10:00;97501.31;;;6.27;83.84
49515;BME280;35415;47.870;16.058;2023-04-02T19:12:28;97471.38;;;6.02;82.60
49515;BME280;35415;47.870;16.058;2023-04-02T19:14:58;97440.28;;;5.72;82.21
49515;BME280;35415;47.870;16.058;2023-04-02T19:17:30;97536.97;;;6.33;83.14
49515;BME280;35415;47.870;16.058;2023-04-02T19:20:12;97494.81;;;6.00;81.81
49515;BME280;35415;47.870;16.058;2023-04-02T19:22:51;97550.09;;;6.34;81.85
49515;BME280;35415;47.870;16.058;2023-04-02T19:25:38;97531.03;;;6.19;81.89
49515;BME280;35415;47.870;16.058;2023-04-02T19:28:11;97523.88;;;6.08;81.10
49515;BME280;35415;47.870;16.058;2023-04-02T19:30:57;97566.59;;;6.31;80.23
49515;BME280;35415;47.870;16.058;2023-04-02T19:33:39;97558.81;;;6.18;79.05
49515;BME280;35415;47.870;16.058;2023-04-02T19:36:39;97551.38;;;6.09;79.41
49515;BME280;35415;47.870;16.058;2023-04-02T19:39:47;97580.06;;;6.13;78.62
49515;BME280;35415;47.870;16.058;2023-04-02T19:42:29;97572.97;;;6.07;79.10
49515;BME280;35415;47.870;16.058;2023-04-02T19:45:01;97515.91;;;5.55;77.99
49515;BME280;35415;47.870;16.058;2023-04-02T19:47:30;97561.34;;;5.90;78.14
49515;BME280;35415;47.870;16.058;2023-04-02T19:49:57;97571.00;;;5.91;76.78
49515;BME280;35415;47.870;16.058;2023-04-02T19:52:25;97591.06;;;5.93;76.37
49515;BME280;35415;47.870;16.058;2023-04-02T19:54:54;97596.06;;;5.90;78.15
49515;BME280;35415;47.870;16.058;2023-04-02T19:57:21;97584.63;;;5.83;77.97
49515;BME280;35415;47.870;16.058;2023-04-02T19:59:48;97578.44;;;5.70;79.53
49515;BME280;35415;47.870;16.058;2023-04-02T20:02:16;97611.53;;;5.81;80.63
49515;BME280;35415;47.870;16.058;2023-04-02T20:04:43;97604.31;;;5.70;79.68
49515;BME280;35415;47.870;16.058;2023-04-02T20:07:10;97617.13;;;5.80;80.14
49515;BME280;35415;47.870;16.058;2023-04-02T20:09:38;97591.91;;;5.64;80.30
49515;BME280;35415;47.870;16.058;2023-04-02T20:12:07;97613.88;;;5.78;78.77
49515;BME280;35415;47.870;16.058;2023-04-02T20:14:36;97626.41;;;5.77;78.90
49515;BME280;35415;47.870;16.058;2023-04-02T20:17:03;97629.06;;;5.77;79.78
49515;BME280;35415;47.870;16.058;2023-04-02T20:19:31;97630.94;;;5.77;80.96
49515;BME280;35415;47.870;16.058;2023-04-02T20:21:58;97600.81;;;5.58;80.61
49515;BME280;35415;47.870;16.058;2023-04-02T20:24:26;97630.34;;;5.74;80.10
49515;BME280;35415;47.870;16.058;2023-04-02T20:26:53;97641.84;;;5.75;79.94
49515;BME280;35415;47.870;16.058;2023-04-02T20:29:22;97598.31;;;5.44;77.45
49515;BME280;35415;47.870;16.058;2023-04-02T20:31:54;97645.78;;;5.72;77.59
49515;BME280;35415;47.870;16.058;2023-04-02T20:34:21;97640.16;;;5.62;76.92